createdAt,value
2022-08-04T00:00:12.283Z,2.60
2022-08-04T00:03:04.451Z,2.58
2022-08-04T00:05:36.989Z,2.30
2022-08-04T00:08:39.825Z,2.37
2022-08-04T00:13:58.161Z,2.80
2022-08-04T00:16:15.622Z,2.52
2022-08-04T00:18:54.127Z,2.67
2022-08-04T00:21:26.723Z,2.47
2022-08-04T00:24:11.524Z,2.50
2022-08-04T00:26:29.149Z,2.67
2022-08-04T00:28:58.732Z,2.95
2022-08-04T00:31:53.668Z,2.65
2022-08-04T00:34:01.791Z,2.47
2022-08-04T00:36:32.564Z,2.65
2022-08-04T00:39:03.078Z,2.27
2022-08-04T00:41:56.809Z,2.62
2022-08-04T00:44:49.669Z,3.10
2022-08-04T00:47:40.151Z,2.58
2022-08-04T00:50:11.976Z,2.20
2022-08-04T00:52:53.498Z,2.03
2022-08-04T00:56:00.238Z,2.10
2022-08-04T00:58:32.907Z,2.55
2022-08-04T01:01:08.264Z,2.20
2022-08-04T01:04:00.156Z,2.33
2022-08-04T01:06:44.591Z,2.50
2022-08-04T01:09:22.030Z,2.30
2022-08-04T01:12:10.087Z,2.40
2022-08-04T01:14:45.420Z,2.62
2022-08-04T01:17:17.903Z,2.27
2022-08-04T01:20:00.894Z,2.35
2022-08-04T01:22:36.360Z,2.30
2022-08-04T01:25:21.188Z,2.70
2022-08-04T01:28:06.887Z,2.50
2022-08-04T01:30:39.386Z,2.22
2022-08-04T01:33:12.053Z,2.40
2022-08-04T01:38:30.717Z,2.62
2022-08-04T01:41:03.254Z,2.52
2022-08-04T01:46:05.697Z,2.33
2022-08-04T01:48:38.891Z,2.70
2022-08-04T01:51:10.871Z,2.67
2022-08-04T01:53:43.248Z,2.90
2022-08-04T01:56:13.755Z,2.85
2022-08-04T01:58:43.730Z,2.80
2022-08-04T02:01:15.035Z,2.92
2022-08-04T02:04:20.632Z,2.87
2022-08-04T02:06:41.736Z,3.00
2022-08-04T02:09:26.187Z,3.40
2022-08-04T02:12:01.260Z,3.22
2022-08-04T02:14:43.320Z,3.22
2022-08-04T02:17:22.246Z,3.23
2022-08-04T02:20:04.068Z,3.50
2022-08-04T02:22:36.263Z,3.02
2022-08-04T02:25:42.787Z,3.80
2022-08-04T02:28:15.298Z,3.50
2022-08-04T02:30:53.449Z,2.90
2022-08-04T02:33:40.845Z,3.80
2022-08-04T02:36:13.414Z,3.35
2022-08-04T02:39:02.756Z,4.05
2022-08-04T02:41:33.414Z,3.33
2022-08-04T02:44:05.709Z,3.62
2022-08-04T02:46:36.914Z,3.52
2022-08-04T02:49:09.648Z,3.42
2022-08-04T02:51:44.288Z,3.10
2022-08-04T02:54:16.879Z,2.90
2022-08-04T02:56:49.824Z,2.70
2022-08-04T02:59:22.945Z,2.73
2022-08-04T03:01:57.438Z,3.08
2022-08-04T03:04:45.968Z,2.80
2022-08-04T03:07:50.140Z,2.42
2022-08-04T03:10:42.336Z,3.25
2022-08-04T03:13:29.746Z,2.60
2022-08-04T03:16:24.865Z,2.77
2022-08-04T03:19:30.954Z,3.10
2022-08-04T03:22:22.922Z,3.22
2022-08-04T03:25:11.928Z,2.40
2022-08-04T03:28:10.275Z,2.45
2022-08-04T03:31:04.743Z,2.83
2022-08-04T03:33:55.569Z,2.67
2022-08-04T03:36:40.309Z,2.60
2022-08-04T03:39:34.332Z,3.05
2022-08-04T03:42:30.884Z,2.92
2022-08-04T03:45:29.090Z,3.37
2022-08-04T03:48:21.432Z,2.77
2022-08-04T03:51:34.841Z,2.87
2022-08-04T03:54:03.393Z,3.53
2022-08-04T03:57:04.745Z,3.30
2022-08-04T03:59:49.427Z,2.87
2022-08-04T04:02:41.693Z,3.10
2022-08-04T04:05:23.476Z,3.43
2022-08-04T04:08:03.968Z,2.95
2022-08-04T04:10:53.691Z,3.60
2022-08-04T04:13:29.638Z,3.17
2022-08-04T04:16:14.432Z,2.70
2022-08-04T04:19:15.801Z,3.17
2022-08-04T04:21:57.041Z,3.37
2022-08-04T04:24:48.677Z,2.83
2022-08-04T04:27:33.259Z,2.95
2022-08-04T04:30:22.265Z,3.05
2022-08-04T04:33:10.164Z,3.10
2022-08-04T04:35:45.568Z,3.75
2022-08-04T04:38:42.439Z,3.42
2022-08-04T04:41:23.844Z,3.10
2022-08-04T04:44:14.082Z,3.25
2022-08-04T04:47:10.861Z,3.47
2022-08-04T04:49:52.218Z,3.30
2022-08-04T04:52:44.873Z,3.42
2022-08-04T04:57:56.757Z,4.00
2022-08-04T05:00:29.369Z,3.77
2022-08-04T05:03:16.900Z,3.80
2022-08-04T05:06:07.274Z,3.42
2022-08-04T05:08:56.609Z,3.62
2022-08-04T05:11:51.342Z,4.25
2022-08-04T05:14:38.962Z,3.72
2022-08-04T05:17:09.331Z,3.47
2022-08-04T05:19:50.874Z,3.65
2022-08-04T05:22:26.935Z,3.57
2022-08-04T05:25:02.252Z,3.55
2022-08-04T05:27:38.177Z,4.15
2022-08-04T05:30:08.128Z,4.42
2022-08-04T05:32:43.214Z,4.20
2022-08-04T05:35:15.979Z,4.17
2022-08-04T05:38:01.199Z,4.45
2022-08-04T05:40:21.135Z,4.50
2022-08-04T05:42:52.610Z,3.98
2022-08-04T05:45:24.433Z,4.70
2022-08-04T05:47:54.829Z,4.40
2022-08-04T05:50:25.408Z,4.22
2022-08-04T05:55:57.009Z,5.25
2022-08-04T05:57:59.827Z,4.00
2022-08-04T06:00:40.905Z,4.08
2022-08-04T06:03:02.923Z,4.28
2022-08-04T06:05:33.626Z,4.10
2022-08-04T06:08:12.553Z,4.25
2022-08-04T06:13:08.959Z,4.50
2022-08-04T06:15:44.503Z,5.00
2022-08-04T06:19:57.767Z,4.37
2022-08-04T06:20:50.200Z,3.93
2022-08-04T06:23:21.556Z,4.70
2022-08-04T06:25:56.342Z,4.67
2022-08-04T06:28:27.526Z,4.72
2022-08-04T06:30:59.567Z,4.75
2022-08-04T06:33:33.733Z,4.95
2022-08-04T06:36:07.217Z,4.77
2022-08-04T06:38:36.818Z,5.75
2022-08-04T06:41:08.453Z,4.85
2022-08-04T06:43:42.789Z,5.12
2022-08-04T06:46:11.370Z,5.10
2022-08-04T06:48:41.179Z,4.87
2022-08-04T06:51:24.436Z,5.00
2022-08-04T06:53:44.099Z,5.37
2022-08-04T06:56:16.715Z,4.30
2022-08-04T06:58:48.595Z,5.40
2022-08-04T07:01:20.701Z,4.93
2022-08-04T07:06:25.575Z,4.97
2022-08-04T07:08:56.471Z,5.58
2022-08-04T07:11:26.602Z,5.12
2022-08-04T07:13:56.694Z,4.92
2022-08-04T07:16:30.585Z,4.70
2022-08-04T07:18:57.705Z,4.40
2022-08-04T07:21:28.020Z,4.97
2022-08-04T07:23:57.701Z,4.90
2022-08-04T07:26:30.372Z,5.12
2022-08-04T07:28:59.988Z,4.35
2022-08-04T07:31:33.875Z,4.60
2022-08-04T07:34:16.417Z,5.15
2022-08-04T07:36:41.894Z,5.25
2022-08-04T07:39:05.417Z,4.80
2022-08-04T07:41:37.469Z,5.03
2022-08-04T07:44:09.488Z,4.67
2022-08-04T07:46:39.465Z,4.67
2022-08-04T07:49:09.193Z,5.50
2022-08-04T07:51:39.365Z,4.55
2022-08-04T07:54:10.968Z,6.27
2022-08-04T07:56:43.199Z,4.45
2022-08-04T08:01:42.296Z,4.70
2022-08-04T08:04:12.972Z,4.95
2022-08-04T08:06:43.619Z,4.30
2022-08-04T08:09:15.540Z,4.42
2022-08-04T08:12:38.041Z,4.47
2022-08-04T08:14:20.228Z,4.42
2022-08-04T08:16:49.821Z,5.00
2022-08-04T08:19:19.340Z,4.70
2022-08-04T08:21:58.907Z,4.80
2022-08-04T08:24:21.129Z,4.05
2022-08-04T08:26:50.755Z,4.47
2022-08-04T08:29:21.554Z,4.55
2022-08-04T08:31:58.388Z,4.55
2022-08-04T08:34:27.883Z,4.50
2022-08-04T08:37:05.827Z,4.30
2022-08-04T08:39:41.063Z,4.10
2022-08-04T08:42:19.663Z,4.10
2022-08-04T08:45:27.129Z,4.17
2022-08-04T08:48:20.576Z,4.17
2022-08-04T08:51:02.545Z,4.68
2022-08-04T08:53:57.647Z,3.90
2022-08-04T08:56:49.576Z,3.90
2022-08-04T08:59:47.847Z,3.80
2022-08-04T09:02:41.484Z,4.17
2022-08-04T09:05:39.442Z,4.30
2022-08-04T09:08:31.357Z,4.05
2022-08-04T09:11:09.719Z,3.87
2022-08-04T09:13:46.239Z,3.83
2022-08-04T09:16:53.773Z,4.10
2022-08-04T09:19:38.926Z,4.28
2022-08-04T09:22:10.711Z,4.22
2022-08-04T09:24:43.102Z,4.03
2022-08-04T09:27:18.407Z,4.58
2022-08-04T09:29:51.626Z,4.10
2022-08-04T09:32:41.561Z,4.60
2022-08-04T09:35:24.515Z,3.85
2022-08-04T09:38:13.366Z,3.60
2022-08-04T09:40:57.005Z,4.07
2022-08-04T09:44:50.091Z,3.22
2022-08-04T09:46:40.020Z,4.22
2022-08-04T09:49:42.939Z,3.85
2022-08-04T09:52:47.125Z,4.58
2022-08-04T09:55:53.446Z,3.80
2022-08-04T09:58:22.830Z,4.03
2022-08-04T10:00:55.375Z,3.75
2022-08-04T10:03:27.897Z,5.10
2022-08-04T10:09:20.622Z,3.83
2022-08-04T10:12:12.099Z,3.75
2022-08-04T10:14:56.643Z,3.95
2022-08-04T10:17:52.527Z,4.03
2022-08-04T10:20:45.586Z,4.10
2022-08-04T10:23:55.982Z,12.30
2022-08-04T10:26:30.408Z,3.87
2022-08-04T10:29:17.863Z,3.85
2022-08-04T10:32:10.428Z,3.80
2022-08-04T10:34:46.005Z,4.33
2022-08-04T10:37:55.360Z,3.65
2022-08-04T10:40:26.368Z,4.00
2022-08-04T10:43:00.276Z,4.00
2022-08-04T10:45:38.998Z,4.55
2022-08-04T10:48:34.551Z,3.80
2022-08-04T10:51:01.000Z,3.94
2022-08-04T10:53:33.811Z,3.80
2022-08-04T10:56:09.707Z,3.85
2022-08-04T10:58:47.835Z,3.40
2022-08-04T11:02:01.198Z,4.25
2022-08-04T11:03:50.574Z,3.40
2022-08-04T11:06:23.054Z,4.25
2022-08-04T11:08:55.603Z,4.20
2022-08-04T11:14:18.886Z,3.75
2022-08-04T11:16:54.087Z,3.77
2022-08-04T11:19:41.537Z,3.37
2022-08-04T11:22:12.683Z,3.70
2022-08-04T11:24:48.116Z,4.25
2022-08-04T11:27:20.965Z,4.25
2022-08-04T11:29:59.734Z,4.12
2022-08-04T11:32:32.293Z,4.83
2022-08-04T11:35:05.142Z,4.28
2022-08-04T11:37:52.666Z,4.20
2022-08-04T11:40:28.255Z,4.17
2022-08-04T11:43:00.816Z,4.47
2022-08-04T11:45:38.939Z,4.20
2022-08-04T11:48:26.854Z,4.30
2022-08-04T11:50:56.998Z,3.98
2022-08-04T11:53:36.509Z,4.15
2022-08-04T11:56:09.256Z,4.17
2022-08-04T11:58:35.014Z,4.28
2022-08-04T12:01:27.766Z,4.25
2022-08-04T12:04:06.474Z,4.83
2022-08-04T12:07:21.618Z,4.58
2022-08-04T12:09:38.960Z,4.70
2022-08-04T12:12:29.627Z,4.73
2022-08-04T12:15:04.952Z,4.70
2022-08-04T12:17:52.327Z,4.67
2022-08-04T12:20:32.230Z,4.70
2022-08-04T12:22:51.617Z,4.08
2022-08-04T12:25:34.388Z,4.87
2022-08-04T12:28:25.279Z,4.80
2022-08-04T12:31:03.438Z,4.83
2022-08-04T12:34:04.296Z,4.67
2022-08-04T12:36:34.688Z,4.92
2022-08-04T12:39:16.215Z,5.03
2022-08-04T12:42:07.244Z,5.03
2022-08-04T12:44:40.085Z,5.22
2022-08-04T12:47:27.478Z,4.92
2022-08-04T12:49:48.111Z,4.55
2022-08-04T12:52:20.411Z,4.65
2022-08-04T12:54:52.962Z,4.40
2022-08-04T12:57:24.841Z,5.12
2022-08-04T12:59:57.269Z,4.54
2022-08-04T13:02:36.363Z,4.28
2022-08-04T13:05:08.263Z,5.28
2022-08-04T13:07:46.652Z,4.22
2022-08-04T13:10:20.052Z,4.65
2022-08-04T13:13:01.047Z,4.72
2022-08-04T13:15:32.307Z,4.78
2022-08-04T13:18:14.723Z,4.75
2022-08-04T13:20:41.215Z,5.12
2022-08-04T13:23:21.450Z,4.30
2022-08-04T13:26:45.048Z,4.70
2022-08-04T13:28:28.828Z,5.07
2022-08-04T13:31:03.482Z,4.62
2022-08-04T13:33:35.847Z,4.67
2022-08-04T13:36:08.259Z,4.70
2022-08-04T13:38:40.865Z,4.33
2022-08-04T13:41:10.930Z,4.65
2022-08-04T13:46:28.189Z,4.28
2022-08-04T13:49:15.977Z,3.90
2022-08-04T13:51:57.944Z,4.47
2022-08-04T13:54:00.412Z,4.15
2022-08-04T13:56:41.896Z,4.00
2022-08-04T13:59:14.070Z,3.70
2022-08-04T14:01:47.241Z,4.03
2022-08-04T14:04:20.588Z,3.60
2022-08-04T14:06:58.743Z,4.22
2022-08-04T14:09:35.341Z,3.90
2022-08-04T14:12:38.529Z,4.10
2022-08-04T14:14:50.347Z,4.03
2022-08-04T14:17:22.983Z,4.05
2022-08-04T14:20:00.192Z,4.00
2022-08-04T14:22:34.276Z,3.75
2022-08-04T14:25:16.851Z,3.72
2022-08-04T14:27:49.716Z,3.72
2022-08-04T14:30:31.651Z,4.08
2022-08-04T14:34:04.771Z,4.42
2022-08-04T14:35:50.290Z,3.98
2022-08-04T14:38:12.592Z,3.52
2022-08-04T14:40:45.198Z,3.65
2022-08-04T14:43:17.712Z,4.10
2022-08-04T14:45:54.338Z,4.13
2022-08-04T14:48:22.005Z,3.80
2022-08-04T14:50:52.982Z,3.80
2022-08-04T14:53:29.279Z,3.60
2022-08-04T14:56:01.162Z,3.90
2022-08-04T15:01:10.592Z,3.50
2022-08-04T15:03:38.539Z,3.95
2022-08-04T15:06:14.442Z,3.80
2022-08-04T15:08:44.387Z,3.58
2022-08-04T15:11:13.402Z,3.33
2022-08-04T15:13:44.716Z,3.52
2022-08-04T15:16:16.226Z,3.20
2022-08-04T15:18:49.269Z,3.53
2022-08-04T15:21:17.583Z,3.90
2022-08-04T15:23:47.960Z,3.52
2022-08-04T15:26:23.521Z,3.90
2022-08-04T15:28:59.290Z,3.42
2022-08-04T15:32:07.625Z,3.67
2022-08-04T15:36:38.587Z,3.60
2022-08-04T15:39:25.457Z,3.77
2022-08-04T15:42:23.178Z,3.77
2022-08-04T15:44:58.440Z,4.00
2022-08-04T15:47:28.524Z,3.87
2022-08-04T15:50:12.944Z,3.70
2022-08-04T15:53:10.303Z,3.42
2022-08-04T15:55:34.493Z,3.55
2022-08-04T15:58:09.804Z,4.20
2022-08-04T16:00:54.991Z,4.30
2022-08-04T16:03:58.976Z,3.98
2022-08-04T16:06:22.887Z,3.77
2022-08-04T16:08:57.746Z,4.12
2022-08-04T16:11:37.034Z,4.55
2022-08-04T16:14:11.523Z,3.80
2022-08-04T16:16:45.679Z,4.03
2022-08-04T16:19:51.557Z,3.70
2022-08-04T16:22:38.981Z,4.28
2022-08-04T16:25:10.735Z,4.10
2022-08-04T16:27:42.756Z,3.60
2022-08-04T16:30:16.418Z,3.75
2022-08-04T16:32:48.865Z,3.77
2022-08-04T16:35:21.469Z,4.25
2022-08-04T16:37:54.910Z,3.83
2022-08-04T16:40:40.155Z,3.87
2022-08-04T16:43:14.753Z,4.20
2022-08-04T16:45:56.118Z,3.85
2022-08-04T16:48:29.064Z,3.80
2022-08-04T16:51:03.244Z,4.05
2022-08-04T16:54:02.598Z,4.03
2022-08-04T16:56:20.882Z,4.17
2022-08-04T16:58:54.440Z,4.00
2022-08-04T17:01:34.207Z,4.30
2022-08-04T17:03:57.797Z,4.42
2022-08-04T17:06:30.192Z,4.30
2022-08-04T17:09:03.600Z,4.03
2022-08-04T17:11:34.312Z,4.10
2022-08-04T17:14:05.685Z,4.22
2022-08-04T17:16:37.868Z,3.67
2022-08-04T17:19:24.333Z,3.90
2022-08-04T17:21:40.741Z,3.70
2022-08-04T17:24:15.620Z,3.37
2022-08-04T17:26:51.813Z,3.75
2022-08-04T17:29:20.062Z,4.17
2022-08-04T17:31:45.660Z,3.77
2022-08-04T17:34:19.538Z,4.05
2022-08-04T17:36:49.466Z,4.17
2022-08-04T17:39:23.248Z,4.12
2022-08-04T17:41:59.269Z,3.85
2022-08-04T17:44:38.080Z,5.08
2022-08-04T17:47:18.514Z,4.17
2022-08-04T17:49:53.277Z,4.42
2022-08-04T17:52:41.217Z,4.35
2022-08-04T17:55:04.151Z,4.65
2022-08-04T17:57:33.829Z,4.53
2022-08-04T18:00:03.342Z,4.67
2022-08-04T18:02:35.255Z,4.62
2022-08-04T18:08:34.623Z,4.30
2022-08-04T18:10:30.919Z,4.35
2022-08-04T18:12:49.186Z,4.42
2022-08-04T18:15:40.502Z,4.72
2022-08-04T18:18:03.462Z,4.47
2022-08-04T18:20:34.621Z,4.50
2022-08-04T18:23:06.014Z,4.65
2022-08-04T18:25:51.474Z,4.67
2022-08-04T18:28:14.334Z,4.55
2022-08-04T18:30:54.924Z,4.95
2022-08-04T18:33:40.677Z,4.72
2022-08-04T18:36:33.913Z,5.08
2022-08-04T18:38:23.475Z,4.42
2022-08-04T18:40:54.218Z,4.90
2022-08-04T18:43:16.952Z,4.55
2022-08-04T18:48:19.277Z,4.75
2022-08-04T18:51:09.462Z,4.62
2022-08-04T18:53:22.298Z,5.22
2022-08-04T18:55:57.205Z,5.05
2022-08-04T18:58:27.506Z,5.22
2022-08-04T19:00:56.069Z,5.07
2022-08-04T19:05:58.423Z,5.35
2022-08-04T19:11:00.456Z,5.53
2022-08-04T19:13:34.671Z,5.55
2022-08-04T19:16:03.485Z,5.30
2022-08-04T19:18:33.474Z,4.87
2022-08-04T19:21:06.675Z,5.70
2022-08-04T19:24:28.951Z,5.60
2022-08-04T19:26:16.563Z,5.37
2022-08-04T19:28:39.042Z,5.67
2022-08-04T19:31:10.076Z,5.65
2022-08-04T19:33:59.414Z,5.85
2022-08-04T19:36:13.048Z,5.92
2022-08-04T19:38:44.197Z,5.60
2022-08-04T19:41:14.974Z,5.05
2022-08-04T19:43:46.379Z,5.65
2022-08-04T19:46:17.679Z,6.25
2022-08-04T19:48:59.762Z,5.37
2022-08-04T19:51:20.080Z,5.70
2022-08-04T19:53:54.776Z,5.70
2022-08-04T19:56:22.463Z,5.20
2022-08-04T19:58:53.638Z,5.83
2022-08-04T20:01:33.405Z,5.40
2022-08-04T20:04:10.212Z,5.23
2022-08-04T20:06:26.378Z,5.83
2022-08-04T20:08:57.696Z,5.90
2022-08-04T20:11:27.171Z,5.55
2022-08-04T20:13:56.603Z,5.67
2022-08-04T20:16:29.859Z,5.75
2022-08-04T20:19:02.836Z,6.00
2022-08-04T20:21:36.415Z,5.83
2022-08-04T20:24:37.620Z,5.57
2022-08-04T20:26:31.388Z,5.63
2022-08-04T20:29:01.712Z,6.17
2022-08-04T20:31:31.651Z,5.87
2022-08-04T20:34:01.316Z,5.70
2022-08-04T20:36:30.776Z,5.87
2022-08-04T20:39:00.366Z,5.80
2022-08-04T20:41:36.730Z,5.95
2022-08-04T20:44:01.939Z,6.37
2022-08-04T20:46:31.448Z,7.08
2022-08-04T20:49:00.926Z,6.62
2022-08-04T20:54:02.280Z,6.62
2022-08-04T20:56:31.934Z,6.22
2022-08-04T20:59:01.670Z,5.75
2022-08-04T21:01:32.945Z,5.70
2022-08-04T21:04:27.202Z,5.70
2022-08-04T21:06:52.320Z,5.92
2022-08-04T21:09:37.573Z,5.58
2022-08-04T21:11:52.909Z,6.55
2022-08-04T21:14:22.493Z,5.12
2022-08-04T21:16:56.362Z,4.73
2022-08-04T21:19:26.975Z,4.15
2022-08-04T21:21:57.003Z,4.10
2022-08-04T21:24:28.315Z,4.67
2022-08-04T21:27:00.469Z,3.97
2022-08-04T21:29:35.044Z,3.95
2022-08-04T21:34:39.559Z,3.77
2022-08-04T21:37:11.261Z,4.17
2022-08-04T21:39:50.151Z,3.85
2022-08-04T21:42:30.570Z,4.10
2022-08-04T21:44:43.661Z,5.05
2022-08-04T21:47:22.382Z,3.75
2022-08-04T21:49:56.341Z,4.03
2022-08-04T21:52:16.682Z,4.00
2022-08-04T21:54:46.754Z,4.22
2022-08-04T21:57:17.868Z,3.75
2022-08-04T21:59:48.935Z,3.77
2022-08-04T22:02:19.616Z,3.77
2022-08-04T22:04:49.800Z,5.60
2022-08-04T22:07:23.215Z,4.65
2022-08-04T22:10:00.282Z,3.90
2022-08-04T22:12:22.026Z,3.50
2022-08-04T22:14:59.573Z,4.33
2022-08-04T22:17:22.675Z,4.67
2022-08-04T22:19:55.861Z,4.17
2022-08-04T22:22:29.146Z,3.33
2022-08-04T22:24:58.915Z,4.12
2022-08-04T22:27:47.896Z,3.65
2022-08-04T22:30:18.455Z,3.33
2022-08-04T22:32:48.531Z,3.85
2022-08-04T22:35:35.871Z,4.67
2022-08-04T22:38:06.200Z,4.40
2022-08-04T22:40:26.261Z,4.05
2022-08-04T22:42:56.962Z,4.23
2022-08-04T22:45:28.826Z,3.75
2022-08-04T22:47:58.940Z,4.50
2022-08-04T22:50:28.557Z,3.67
2022-08-04T22:52:58.102Z,4.10
2022-08-04T22:56:06.829Z,3.67
2022-08-04T22:58:05.394Z,4.20
2022-08-04T23:00:33.805Z,3.70
2022-08-04T23:03:03.312Z,3.87
2022-08-04T23:05:36.146Z,3.50
2022-08-04T23:08:05.885Z,4.30
2022-08-04T23:10:36.142Z,3.85
2022-08-04T23:13:05.880Z,3.52
2022-08-04T23:15:35.816Z,3.60
2022-08-04T23:18:05.440Z,3.80
2022-08-04T23:20:39.718Z,3.98
2022-08-04T23:23:14.994Z,3.92
2022-08-04T23:26:07.972Z,3.90
2022-08-04T23:28:11.287Z,3.80
2022-08-04T23:30:40.858Z,3.87
2022-08-04T23:33:11.945Z,4.33
2022-08-04T23:35:41.806Z,3.58
2022-08-04T23:38:31.746Z,3.75
2022-08-04T23:40:50.418Z,4.40
2022-08-04T23:43:17.046Z,3.70
2022-08-04T23:46:04.059Z,3.90
2022-08-04T23:48:19.408Z,4.40
2022-08-04T23:50:47.686Z,3.67
2022-08-04T23:53:18.350Z,4.17
2022-08-04T23:55:48.281Z,4.23
2022-08-04T23:58:26.825Z,4.03
